createdAt,value
2022-09-26T00:01:43.604Z,12.66
2022-09-26T00:04:21.209Z,12.91
2022-09-26T00:06:52.461Z,12.71
2022-09-26T00:09:23.826Z,12.91
2022-09-26T00:11:52.570Z,12.84
2022-09-26T00:14:24.793Z,12.83
2022-09-26T00:16:53.674Z,12.82
2022-09-26T00:19:22.122Z,12.82
2022-09-26T00:21:50.598Z,12.81
2022-09-26T00:24:19.462Z,12.73
2022-09-26T00:26:49.249Z,12.67
2022-09-26T00:29:17.599Z,12.66
2022-09-26T00:31:49.127Z,12.65
2022-09-26T00:34:20.641Z,12.60
2022-09-26T00:36:50.276Z,12.62
2022-09-26T00:39:18.846Z,12.65
2022-09-26T00:41:48.507Z,12.73
2022-09-26T00:44:43.453Z,12.69
2022-09-26T00:47:22.769Z,12.61
2022-09-26T00:49:54.781Z,12.51
2022-09-26T00:52:28.315Z,12.44
2022-09-26T00:55:00.007Z,12.41
2022-09-26T00:57:34.604Z,12.36
2022-09-26T01:00:06.735Z,12.14
2022-09-26T01:02:35.591Z,12.36
2022-09-26T01:05:06.000Z,12.34
2022-09-26T01:07:35.351Z,12.30
2022-09-26T01:10:05.894Z,12.27
2022-09-26T01:12:37.469Z,12.29
2022-09-26T01:15:09.223Z,12.32
2022-09-26T01:17:39.080Z,12.35
2022-09-26T01:20:26.067Z,12.31
2022-09-26T01:23:32.836Z,12.24
2022-09-26T01:26:30.580Z,12.16
2022-09-26T01:29:28.947Z,12.10
2022-09-26T01:32:23.219Z,12.12
2022-09-26T01:34:59.984Z,12.06
2022-09-26T01:37:34.770Z,12.02
2022-09-26T01:40:10.389Z,11.99
2022-09-26T01:42:46.924Z,11.04
2022-09-26T01:45:19.295Z,11.95
2022-09-26T01:47:56.449Z,11.91
2022-09-26T01:50:34.920Z,11.85
2022-09-26T01:53:07.684Z,11.81
2022-09-26T01:55:39.696Z,11.64
2022-09-26T01:58:13.247Z,11.79
2022-09-26T02:00:46.182Z,11.74
2022-09-26T02:03:20.117Z,11.67
2022-09-26T02:05:53.552Z,11.63
2022-09-26T02:08:26.811Z,11.58
2022-09-26T02:11:02.495Z,11.52
2022-09-26T02:13:36.610Z,11.39
2022-09-26T02:16:10.029Z,11.56
2022-09-26T02:18:44.257Z,11.62
2022-09-26T02:21:17.739Z,11.67
2022-09-26T02:23:46.293Z,11.59
2022-09-26T02:26:16.191Z,11.28
2022-09-26T02:28:44.866Z,11.56
2022-09-26T02:31:22.147Z,11.52
2022-09-26T02:33:52.997Z,11.47
2022-09-26T02:36:23.400Z,11.43
2022-09-26T02:38:51.666Z,11.43
2022-09-26T02:41:47.558Z,11.40
2022-09-26T02:44:38.501Z,11.32
2022-09-26T02:47:27.881Z,11.27
2022-09-26T02:50:20.487Z,11.25
2022-09-26T02:53:00.531Z,11.29
2022-09-26T02:55:44.318Z,11.04
2022-09-26T02:58:23.328Z,11.19
2022-09-26T03:01:00.757Z,11.14
2022-09-26T03:03:37.157Z,11.13
2022-09-26T03:06:10.113Z,11.11
2022-09-26T03:08:43.463Z,11.09
2022-09-26T03:11:16.985Z,11.05
2022-09-26T03:13:46.996Z,11.00
2022-09-26T03:16:16.170Z,11.01
2022-09-26T03:18:51.500Z,11.01
2022-09-26T03:21:22.317Z,11.03
2022-09-26T03:23:50.989Z,11.04
2022-09-26T03:26:22.252Z,11.06
2022-09-26T03:29:00.545Z,11.01
2022-09-26T03:31:31.752Z,11.05
2022-09-26T03:34:02.284Z,11.07
2022-09-26T03:36:33.250Z,11.17
2022-09-26T03:39:03.510Z,11.27
2022-09-26T03:41:38.571Z,11.42
2022-09-26T03:44:26.405Z,11.57
2022-09-26T03:47:03.784Z,11.68
2022-09-26T03:49:32.882Z,11.79
2022-09-26T03:52:03.072Z,11.85
2022-09-26T03:54:31.497Z,11.89
2022-09-26T03:56:59.719Z,11.93
2022-09-26T03:59:28.380Z,11.96
2022-09-26T04:01:56.799Z,11.90
2022-09-26T04:04:26.045Z,12.00
2022-09-26T04:06:54.768Z,11.98
2022-09-26T04:09:24.722Z,12.00
2022-09-26T04:11:53.392Z,11.89
2022-09-26T04:14:22.620Z,12.00
2022-09-26T04:16:58.491Z,12.02
2022-09-26T04:19:34.779Z,12.01
2022-09-26T04:22:04.256Z,12.03
2022-09-26T04:24:36.078Z,12.07
2022-09-26T04:27:04.988Z,12.09
2022-09-26T04:29:33.614Z,12.12
2022-09-26T04:32:11.265Z,12.11
2022-09-26T04:34:59.754Z,12.13
2022-09-26T04:37:28.092Z,12.14
2022-09-26T04:39:57.687Z,12.24
2022-09-26T04:42:26.041Z,12.15
2022-09-26T04:44:54.392Z,12.15
2022-09-26T04:47:22.584Z,12.03
2022-09-26T04:50:19.442Z,12.04
2022-09-26T04:53:06.474Z,11.94
2022-09-26T04:55:44.813Z,11.94
2022-09-26T04:58:13.338Z,11.98
2022-09-26T05:00:45.805Z,12.01
2022-09-26T05:03:18.392Z,11.97
2022-09-26T05:05:48.571Z,11.95
2022-09-26T05:08:16.882Z,11.85
2022-09-26T05:10:53.896Z,11.79
2022-09-26T05:13:22.484Z,11.75
2022-09-26T05:15:53.371Z,11.72
2022-09-26T05:18:23.361Z,11.72
2022-09-26T05:20:51.914Z,11.77
2022-09-26T05:23:37.020Z,11.82
2022-09-26T05:26:21.301Z,11.88
2022-09-26T05:28:52.402Z,11.92
2022-09-26T05:31:26.573Z,11.99
2022-09-26T05:33:57.291Z,12.01
2022-09-26T05:36:26.036Z,12.02
2022-09-26T05:38:54.549Z,12.00
2022-09-26T05:41:23.708Z,11.96
2022-09-26T05:43:52.194Z,11.94
2022-09-26T05:46:20.465Z,11.90
2022-09-26T05:48:52.517Z,11.85
2022-09-26T05:51:23.552Z,11.77
2022-09-26T05:53:51.889Z,11.73
2022-09-26T05:56:25.542Z,11.69
2022-09-26T05:59:16.994Z,11.62
2022-09-26T06:02:06.275Z,11.64
2022-09-26T06:04:52.932Z,11.66
2022-09-26T06:07:54.227Z,11.70
2022-09-26T06:10:40.775Z,11.72
2022-09-26T06:13:15.512Z,11.78
2022-09-26T06:15:52.223Z,12.89
2022-09-26T06:18:20.532Z,12.47
2022-09-26T06:20:48.758Z,12.34
2022-09-26T06:23:17.322Z,12.35
2022-09-26T06:25:47.355Z,12.39
2022-09-26T06:28:18.113Z,12.41
2022-09-26T06:30:46.519Z,12.45
2022-09-26T06:33:35.470Z,12.47
2022-09-26T06:36:23.879Z,12.44
2022-09-26T06:38:54.563Z,12.61
2022-09-26T06:41:26.062Z,12.66
2022-09-26T06:43:56.067Z,12.77
2022-09-26T06:46:28.015Z,12.87
2022-09-26T06:49:12.379Z,13.02
2022-09-26T06:51:43.979Z,13.13
2022-09-26T06:54:12.309Z,13.32
2022-09-26T06:56:40.742Z,13.47
2022-09-26T06:59:10.431Z,13.63
2022-09-26T07:01:46.444Z,13.74
2022-09-26T07:04:33.665Z,13.67
2022-09-26T07:07:28.021Z,14.04
2022-09-26T07:09:56.625Z,14.21
2022-09-26T07:12:47.314Z,14.38
2022-09-26T07:15:20.580Z,14.48
2022-09-26T07:17:49.709Z,14.74
2022-09-26T07:20:34.491Z,14.74
2022-09-26T07:23:09.616Z,15.09
2022-09-26T07:25:39.689Z,15.24
2022-09-26T07:28:10.368Z,15.47
2022-09-26T07:30:51.543Z,15.67
2022-09-26T07:33:31.718Z,15.84
2022-09-26T07:36:05.806Z,16.02
2022-09-26T07:38:34.286Z,16.21
2022-09-26T07:41:04.231Z,16.36
2022-09-26T07:44:19.295Z,16.52
2022-09-26T07:46:41.618Z,16.73
2022-09-26T07:49:28.369Z,17.00
2022-09-26T07:52:12.310Z,17.24
2022-09-26T07:55:10.507Z,17.43
2022-09-26T07:57:50.064Z,17.57
2022-09-26T08:00:38.236Z,17.67
2022-09-26T08:03:20.767Z,17.81
2022-09-26T08:05:49.569Z,17.92
2022-09-26T08:08:19.097Z,18.07
2022-09-26T08:11:06.316Z,18.03
2022-09-26T08:13:47.117Z,18.15
2022-09-26T08:16:33.935Z,18.23
2022-09-26T08:19:07.959Z,18.34
2022-09-26T08:21:36.820Z,18.46
2022-09-26T08:24:05.153Z,18.56
2022-09-26T08:26:33.420Z,18.62
2022-09-26T08:29:12.513Z,18.81
2022-09-26T08:31:41.849Z,19.07
2022-09-26T08:34:11.607Z,19.34
2022-09-26T08:36:40.383Z,19.65
2022-09-26T08:39:17.397Z,19.86
2022-09-26T08:42:01.742Z,20.00
2022-09-26T08:45:27.633Z,20.20
2022-09-26T08:48:52.096Z,20.30
2022-09-26T08:51:30.016Z,20.32
2022-09-26T08:54:06.853Z,20.36
2022-09-26T08:56:38.519Z,20.24
2022-09-26T08:59:13.541Z,20.02
2022-09-26T09:01:45.181Z,20.01
2022-09-26T09:04:22.215Z,19.94
2022-09-26T09:06:58.980Z,19.92
2022-09-26T09:09:27.248Z,19.87
2022-09-26T09:12:23.842Z,19.94
2022-09-26T09:15:25.782Z,19.91
2022-09-26T09:18:29.296Z,19.91
2022-09-26T09:21:42.765Z,19.88
2022-09-26T09:24:33.889Z,19.88
2022-09-26T09:30:17.802Z,19.85
2022-09-26T09:33:11.273Z,19.80
2022-09-26T09:35:50.768Z,19.81
2022-09-26T09:38:36.053Z,19.83
2022-09-26T09:41:18.289Z,19.82
2022-09-26T09:43:49.813Z,19.66
2022-09-26T09:46:23.187Z,19.45
2022-09-26T09:48:54.890Z,19.80
2022-09-26T09:51:44.432Z,19.84
2022-09-26T09:54:32.609Z,19.85
2022-09-26T09:57:41.796Z,19.86
2022-09-26T10:00:17.244Z,19.85
2022-09-26T10:03:25.202Z,19.84
2022-09-26T10:05:59.763Z,19.85
2022-09-26T10:08:34.358Z,19.75
2022-09-26T10:11:28.358Z,19.91
2022-09-26T10:14:04.842Z,19.98
2022-09-26T10:17:19.641Z,20.01
2022-09-26T10:20:36.505Z,20.14
2022-09-26T10:23:14.108Z,20.26
2022-09-26T10:25:48.594Z,20.34
2022-09-26T10:28:31.263Z,20.40
2022-09-26T10:31:08.975Z,20.39
2022-09-26T10:34:00.248Z,20.37
2022-09-26T10:36:32.206Z,20.41
2022-09-26T10:39:20.753Z,20.45
2022-09-26T10:41:59.208Z,20.62
2022-09-26T10:44:29.356Z,20.57
2022-09-26T10:47:12.765Z,20.98
2022-09-26T10:50:06.563Z,21.25
2022-09-26T10:52:48.471Z,21.52
2022-09-26T10:55:22.115Z,21.75
2022-09-26T10:57:54.164Z,21.99
2022-09-26T11:00:37.790Z,22.01
2022-09-26T11:03:15.621Z,22.30
2022-09-26T11:06:03.924Z,22.27
2022-09-26T11:08:35.617Z,22.18
2022-09-26T11:11:28.080Z,22.05
2022-09-26T11:14:03.590Z,22.00
2022-09-26T11:16:41.891Z,21.83
2022-09-26T11:19:20.809Z,21.85
2022-09-26T11:21:56.840Z,22.01
2022-09-26T11:24:37.276Z,22.09
2022-09-26T11:27:31.542Z,22.02
2022-09-26T11:30:09.453Z,21.95
2022-09-26T11:32:45.116Z,21.93
2022-09-26T11:35:46.921Z,22.06
2022-09-26T11:38:27.597Z,22.21
2022-09-26T11:41:14.791Z,22.36
2022-09-26T11:43:54.605Z,22.40
2022-09-26T11:46:52.664Z,22.56
2022-09-26T11:49:59.247Z,22.66
2022-09-26T11:53:02.224Z,22.70
2022-09-26T11:55:37.309Z,22.77
2022-09-26T11:58:14.946Z,22.83
2022-09-26T12:00:57.049Z,22.77
2022-09-26T12:03:53.502Z,22.71
2022-09-26T12:06:34.744Z,22.69
2022-09-26T12:09:24.056Z,22.73
2022-09-26T12:12:06.087Z,22.75
2022-09-26T12:14:45.662Z,22.62
2022-09-26T12:17:21.348Z,22.69
2022-09-26T12:19:58.689Z,22.61
2022-09-26T12:22:36.182Z,22.48
2022-09-26T12:25:36.210Z,22.45
2022-09-26T12:28:27.739Z,22.39
2022-09-26T12:31:11.523Z,22.33
2022-09-26T12:34:12.445Z,22.43
2022-09-26T12:36:53.526Z,22.39
2022-09-26T12:39:43.131Z,22.45
2022-09-26T12:42:35.264Z,22.40
2022-09-26T12:45:26.750Z,22.38
2022-09-26T12:48:13.003Z,22.37
2022-09-26T12:50:52.143Z,22.45
2022-09-26T12:53:44.750Z,22.51
2022-09-26T12:56:22.434Z,22.45
2022-09-26T12:59:07.622Z,22.42
2022-09-26T13:01:49.844Z,22.44
2022-09-26T13:04:41.917Z,22.41
2022-09-26T13:07:27.356Z,22.40
2022-09-26T13:10:13.008Z,22.27
2022-09-26T13:12:56.432Z,22.36
2022-09-26T13:15:34.942Z,22.36
2022-09-26T13:18:10.278Z,22.38
2022-09-26T13:20:43.789Z,22.41
2022-09-26T13:23:20.346Z,22.40
2022-09-26T13:25:54.067Z,22.53
2022-09-26T13:28:26.756Z,22.52
2022-09-26T13:31:02.145Z,22.51
2022-09-26T13:33:37.230Z,22.50
2022-09-26T13:36:07.018Z,22.29
2022-09-26T13:38:43.326Z,22.43
2022-09-26T13:41:29.776Z,22.46
2022-09-26T13:44:09.276Z,22.40
2022-09-26T13:46:52.944Z,22.42
2022-09-26T13:49:51.054Z,22.42
2022-09-26T13:52:27.798Z,22.40
2022-09-26T13:55:02.334Z,22.42
2022-09-26T13:57:37.083Z,22.38
2022-09-26T14:00:17.121Z,22.34
2022-09-26T14:03:25.904Z,22.27
2022-09-26T14:06:09.119Z,22.15
2022-09-26T14:08:55.488Z,22.06
2022-09-26T14:11:30.551Z,21.97
2022-09-26T14:14:25.304Z,22.01
2022-09-26T14:16:55.003Z,22.00
2022-09-26T14:19:32.670Z,21.85
2022-09-26T14:22:03.675Z,21.94
2022-09-26T14:24:37.831Z,21.97
2022-09-26T14:27:22.503Z,21.90
2022-09-26T14:29:54.204Z,21.86
2022-09-26T14:32:27.543Z,21.79
2022-09-26T14:34:59.483Z,21.71
2022-09-26T14:37:40.512Z,21.71
2022-09-26T14:40:25.410Z,21.74
2022-09-26T14:42:56.728Z,21.70
2022-09-26T14:45:28.053Z,21.61
2022-09-26T14:48:06.536Z,21.44
2022-09-26T14:50:48.945Z,21.24
2022-09-26T14:53:26.148Z,21.08
2022-09-26T14:55:59.229Z,20.91
2022-09-26T14:58:47.660Z,20.69
2022-09-26T15:01:20.885Z,20.73
2022-09-26T15:03:55.704Z,20.66
2022-09-26T15:06:28.231Z,20.63
2022-09-26T15:08:59.344Z,20.61
2022-09-26T15:11:34.778Z,20.52
2022-09-26T15:14:16.075Z,20.50
2022-09-26T15:16:50.169Z,20.44
2022-09-26T15:19:23.500Z,20.47
2022-09-26T15:21:58.513Z,20.47
2022-09-26T15:24:29.681Z,20.49
2022-09-26T15:27:01.149Z,20.47
2022-09-26T15:29:29.642Z,20.40
2022-09-26T15:31:58.024Z,20.40
2022-09-26T15:34:34.385Z,20.36
2022-09-26T15:37:15.690Z,20.32
2022-09-26T15:39:44.598Z,20.30
2022-09-26T15:42:38.733Z,20.30
2022-09-26T15:45:27.118Z,20.10
2022-09-26T15:47:56.513Z,20.24
2022-09-26T15:50:28.817Z,20.23
2022-09-26T15:53:03.506Z,20.22
2022-09-26T15:55:35.779Z,20.19
2022-09-26T15:58:08.169Z,20.02
2022-09-26T16:00:41.917Z,20.15
2022-09-26T16:03:34.352Z,20.15
2022-09-26T16:06:03.050Z,20.14
2022-09-26T16:08:37.482Z,20.14
2022-09-26T16:11:07.605Z,20.11
2022-09-26T16:13:40.109Z,20.06
2022-09-26T16:16:13.918Z,19.99
2022-09-26T16:18:48.326Z,19.97
2022-09-26T16:21:19.364Z,19.95
2022-09-26T16:23:50.851Z,19.75
2022-09-26T16:26:25.032Z,19.92
2022-09-26T16:28:53.850Z,19.91
2022-09-26T16:31:29.684Z,19.93
2022-09-26T16:34:01.297Z,19.81
2022-09-26T16:36:32.743Z,19.87
2022-09-26T16:39:05.491Z,19.82
2022-09-26T16:44:34.825Z,19.79
2022-09-26T16:47:06.187Z,19.78
2022-09-26T16:49:46.168Z,19.73
2022-09-26T16:52:29.038Z,19.66
2022-09-26T16:55:00.673Z,19.56
2022-09-26T16:57:31.444Z,19.54
2022-09-26T17:00:15.938Z,19.47
2022-09-26T17:02:44.521Z,19.39
2022-09-26T17:05:18.703Z,19.38
2022-09-26T17:07:48.598Z,19.34
2022-09-26T17:10:19.716Z,19.28
2022-09-26T17:12:50.772Z,19.21
2022-09-26T17:15:23.454Z,18.99
2022-09-26T17:17:54.321Z,19.14
2022-09-26T17:20:23.735Z,19.12
2022-09-26T17:22:54.482Z,19.06
2022-09-26T17:25:25.302Z,18.98
2022-09-26T17:27:58.150Z,18.96
2022-09-26T17:30:26.802Z,18.78
2022-09-26T17:32:55.590Z,18.94
2022-09-26T17:35:29.623Z,18.91
2022-09-26T17:37:58.153Z,18.77
2022-09-26T17:40:30.675Z,18.86
2022-09-26T17:43:01.843Z,18.84
2022-09-26T17:45:32.458Z,18.81
2022-09-26T17:48:04.208Z,18.79
2022-09-26T17:50:35.567Z,18.41
2022-09-26T17:53:04.160Z,18.73
2022-09-26T17:55:33.885Z,18.72
2022-09-26T17:58:02.421Z,18.68
2022-09-26T18:00:35.340Z,18.68
2022-09-26T18:03:05.004Z,18.65
2022-09-26T18:05:36.473Z,18.62
2022-09-26T18:08:12.950Z,18.57
2022-09-26T18:10:50.251Z,18.53
2022-09-26T18:13:25.204Z,18.56
2022-09-26T18:15:54.198Z,18.52
2022-09-26T18:18:24.818Z,18.49
2022-09-26T18:20:54.251Z,18.48
2022-09-26T18:23:25.265Z,18.49
2022-09-26T18:25:58.305Z,18.25
2022-09-26T18:28:27.333Z,18.52
2022-09-26T18:30:59.244Z,18.54
2022-09-26T18:33:29.198Z,18.52
2022-09-26T18:35:59.485Z,18.52
2022-09-26T18:38:28.047Z,18.49
2022-09-26T18:40:59.055Z,18.48
2022-09-26T18:43:37.627Z,18.44
2022-09-26T18:46:11.249Z,18.43
2022-09-26T18:48:39.671Z,18.42
2022-09-26T18:51:08.800Z,18.39
2022-09-26T18:53:41.447Z,18.41
2022-09-26T18:56:29.496Z,18.40
2022-09-26T18:58:58.484Z,18.07
2022-09-26T19:01:33.095Z,18.35
2022-09-26T19:04:04.818Z,18.33
2022-09-26T19:06:37.659Z,18.30
2022-09-26T19:09:07.782Z,18.25
2022-09-26T19:11:37.563Z,18.22
2022-09-26T19:14:13.803Z,18.23
2022-09-26T19:16:42.865Z,18.19
2022-09-26T19:19:11.250Z,18.16
2022-09-26T19:21:42.109Z,18.21
2022-09-26T19:24:20.635Z,18.23
2022-09-26T19:26:53.441Z,18.21
2022-09-26T19:29:30.529Z,18.15
2022-09-26T19:31:59.461Z,18.24
2022-09-26T19:34:32.576Z,18.27
2022-09-26T19:37:04.041Z,18.24
2022-09-26T19:39:32.995Z,18.22
2022-09-26T19:42:02.901Z,18.23
2022-09-26T19:44:31.240Z,18.29
2022-09-26T19:46:59.975Z,18.32
2022-09-26T19:49:30.105Z,18.35
2022-09-26T19:52:01.199Z,18.31
2022-09-26T19:54:30.119Z,18.30
2022-09-26T19:56:58.841Z,18.24
2022-09-26T19:59:28.644Z,18.27
2022-09-26T20:01:57.305Z,18.30
2022-09-26T20:04:25.942Z,18.24
2022-09-26T20:06:54.216Z,18.23
2022-09-26T20:09:22.585Z,18.21
2022-09-26T20:11:50.895Z,18.14
2022-09-26T20:14:25.030Z,18.14
2022-09-26T20:16:57.512Z,17.96
2022-09-26T20:19:31.898Z,18.13
2022-09-26T20:22:03.309Z,18.13
2022-09-26T20:24:34.567Z,18.13
2022-09-26T20:27:05.252Z,18.14
2022-09-26T20:29:53.528Z,18.13
2022-09-26T20:32:23.245Z,18.11
2022-09-26T20:34:51.561Z,18.10
2022-09-26T20:37:22.448Z,18.07
2022-09-26T20:39:52.535Z,18.01
2022-09-26T20:42:22.196Z,17.96
2022-09-26T20:44:51.147Z,17.96
2022-09-26T20:47:21.335Z,17.95
2022-09-26T20:49:54.534Z,17.89
2022-09-26T20:52:24.872Z,17.80
2022-09-26T20:54:53.711Z,17.77
2022-09-26T20:57:23.290Z,17.70
2022-09-26T20:59:51.882Z,17.73
2022-09-26T21:02:29.582Z,17.75
2022-09-26T21:05:01.851Z,17.69
2022-09-26T21:07:32.622Z,17.68
2022-09-26T21:10:00.999Z,17.67
2022-09-26T21:12:29.328Z,17.65
2022-09-26T21:14:57.688Z,17.63
2022-09-26T21:17:28.246Z,17.62
2022-09-26T21:19:58.407Z,17.63
2022-09-26T21:22:57.372Z,17.34
2022-09-26T21:25:27.582Z,17.54
2022-09-26T21:27:58.631Z,17.48
2022-09-26T21:30:27.159Z,17.44
2022-09-26T21:32:58.262Z,17.37
2022-09-26T21:35:31.995Z,17.22
2022-09-26T21:38:02.310Z,17.25
2022-09-26T21:40:33.976Z,17.20
2022-09-26T21:43:11.317Z,17.19
2022-09-26T21:45:40.395Z,17.16
2022-09-26T21:48:08.701Z,17.11
2022-09-26T21:50:42.002Z,17.07
2022-09-26T21:53:14.050Z,17.02
2022-09-26T21:55:47.051Z,16.97
2022-09-26T21:58:20.592Z,16.91
2022-09-26T22:00:48.877Z,16.90
2022-09-26T22:03:17.186Z,16.92
2022-09-26T22:05:47.022Z,16.92
2022-09-26T22:08:15.482Z,16.89
2022-09-26T22:10:43.864Z,16.86
2022-09-26T22:13:12.327Z,16.80
2022-09-26T22:15:40.629Z,16.76
2022-09-26T22:18:09.865Z,16.75
2022-09-26T22:20:38.247Z,16.76
2022-09-26T22:23:07.888Z,16.74
2022-09-26T22:25:39.654Z,16.72
2022-09-26T22:28:10.576Z,16.68
2022-09-26T22:30:40.478Z,16.69
2022-09-26T22:33:08.828Z,16.69
2022-09-26T22:35:37.223Z,16.69
2022-09-26T22:38:05.604Z,16.67
2022-09-26T22:40:35.937Z,16.72
2022-09-26T22:43:04.321Z,16.74
2022-09-26T22:45:32.697Z,16.72
2022-09-26T22:48:01.112Z,16.71
2022-09-26T22:50:29.697Z,16.68
2022-09-26T22:52:59.107Z,16.66
2022-09-26T22:55:27.409Z,16.59
2022-09-26T22:57:57.267Z,16.64
2022-09-26T23:00:25.598Z,16.70
2022-09-26T23:02:54.121Z,16.74
2022-09-26T23:05:22.485Z,16.74
2022-09-26T23:07:54.269Z,16.76
2022-09-26T23:10:23.139Z,16.67
2022-09-26T23:12:51.445Z,16.77
2022-09-26T23:15:21.157Z,16.77
2022-09-26T23:17:49.459Z,16.77
2022-09-26T23:20:17.914Z,16.78
2022-09-26T23:22:46.201Z,16.80
2022-09-26T23:25:14.525Z,16.80
2022-09-26T23:27:42.863Z,16.78
2022-09-26T23:30:12.421Z,16.75
2022-09-26T23:32:42.140Z,16.69
2022-09-26T23:35:10.713Z,16.65
2022-09-26T23:37:39.008Z,16.64
2022-09-26T23:40:08.441Z,16.60
2022-09-26T23:42:36.757Z,16.51
2022-09-26T23:45:05.610Z,16.42
2022-09-26T23:47:34.561Z,16.40
2022-09-26T23:50:04.372Z,16.38
2022-09-26T23:52:32.620Z,16.35
2022-09-26T23:55:01.138Z,16.33
2022-09-26T23:57:29.433Z,16.31
2022-09-26T23:59:57.775Z,16.25
